Time;durP1;ratioP1;P1;durP2;ratioP2;P2;SDS_P1;SDS_P2;PMS_P1;PMS_P2;Temp;Humidity;BMP_temperature;BMP_pressure;BME280_temperature;BME280_humidity;BME280_pressure;Samples;Min_cycle;Max_cycle;Signal;HPM_P1;HPM_P2
2021/09/25 00:00:30;;;;;;;9.93;8.87;;;;;;;17.29;75.26;100661.56;5031917;28;20604;-72
2021/09/25 00:02:57;;;;;;;9.87;8.23;;;;;;;17.27;75.25;100667.06;5032870;28;20212;-72
2021/09/25 00:05:26;;;;;;;10.30;9.23;;;;;;;17.26;75.55;100661.84;5031125;28;20227;-72
2021/09/25 00:07:52;;;;;;;13.27;9.57;;;;;;;17.23;75.72;100657.56;5031096;28;20211;-73
2021/09/25 00:10:19;;;;;;;13.63;9.50;;;;;;;17.23;75.70;100670.19;5032364;28;20225;-72
2021/09/25 00:12:45;;;;;;;11.97;9.47;;;;;;;17.21;75.90;100662.25;5032437;28;20213;-72
2021/09/25 00:15:14;;;;;;;10.60;8.80;;;;;;;17.21;75.87;100667.63;5032150;28;20692;-72
2021/09/25 00:17:40;;;;;;;13.03;9.43;;;;;;;17.19;76.09;100672.31;5032709;28;20299;-72
2021/09/25 00:20:09;;;;;;;13.57;9.50;;;;;;;17.18;76.04;100667.94;5031598;28;20229;-72
2021/09/25 00:22:35;;;;;;;10.30;9.20;;;;;;;17.18;76.15;100662.53;5032461;28;20217;-72
2021/09/25 00:25:03;;;;;;;11.17;9.60;;;;;;;17.17;76.29;100666.22;5031726;28;20231;-72
2021/09/25 00:27:30;;;;;;;13.70;10.43;;;;;;;17.13;76.43;100670.19;5030982;28;20324;-73
2021/09/25 00:29:56;;;;;;;12.77;10.20;;;;;;;17.13;76.34;100669.31;5029075;28;20225;-72
2021/09/25 00:32:24;;;;;;;14.23;10.73;;;;;;;17.11;76.56;100672.16;5033267;28;20565;-72
2021/09/25 00:34:51;;;;;;;11.40;10.30;;;;;;;17.10;76.77;100678.53;5020696;28;20201;-72
2021/09/25 00:37:17;;;;;;;11.83;10.60;;;;;;;17.10;76.71;100675.84;5028118;28;20213;-72
2021/09/25 00:39:44;;;;;;;12.83;9.93;;;;;;;17.10;76.66;100674.97;5031534;28;20261;-73
2021/09/25 00:42:11;;;;;;;12.70;10.27;;;;;;;17.09;76.77;100671.44;5031517;28;20698;-72
2021/09/25 00:44:37;;;;;;;11.77;10.67;;;;;;;17.08;76.86;100675.13;5012298;28;20713;-72
2021/09/25 00:47:04;;;;;;;13.00;10.53;;;;;;;17.07;76.96;100683.31;5027990;28;20679;-72
2021/09/25 00:49:32;;;;;;;16.87;11.00;;;;;;;17.06;77.01;100681.63;5028442;28;20211;-72
2021/09/25 00:51:58;;;;;;;13.30;10.77;;;;;;;17.05;77.15;100691.53;5031607;28;20207;-72
2021/09/25 00:54:25;;;;;;;13.83;11.97;;;;;;;17.02;77.18;100689.97;5031844;28;20207;-72
2021/09/25 00:56:52;;;;;;;11.80;10.60;;;;;;;17.01;77.37;100682.06;5031620;28;20202;-71
2021/09/25 00:59:19;;;;;;;13.10;11.80;;;;;;;17.01;77.39;100695.50;5030737;28;20202;-71
2021/09/25 01:01:46;;;;;;;14.87;12.17;;;;;;;16.99;77.70;100695.63;5031497;28;20206;-72
2021/09/25 01:04:13;;;;;;;13.77;12.27;;;;;;;16.99;77.57;100700.16;5015021;28;20212;-72
2021/09/25 01:06:41;;;;;;;13.83;12.27;;;;;;;16.97;77.68;100684.16;5023213;28;20228;-71
2021/09/25 01:09:07;;;;;;;14.17;12.43;;;;;;;16.96;78.21;100689.69;5031207;28;20216;-72
2021/09/25 01:11:35;;;;;;;15.33;13.83;;;;;;;16.96;78.13;100689.69;5031474;28;20756;-72
2021/09/25 01:14:01;;;;;;;16.07;13.87;;;;;;;16.96;78.05;100692.38;5031234;28;20232;-71
2021/09/25 01:16:28;;;;;;;14.77;13.17;;;;;;;16.95;78.23;100694.22;5030854;28;20197;-72
2021/09/25 01:18:55;;;;;;;18.00;13.10;;;;;;;16.96;78.15;100693.22;5030526;28;20749;-72
2021/09/25 01:21:22;;;;;;;15.17;13.70;;;;;;;16.94;78.22;100697.88;5031186;28;20737;-71
2021/09/25 01:23:49;;;;;;;16.57;14.13;;;;;;;16.95;78.21;100704.97;5031014;28;20693;-73
2021/09/25 01:26:16;;;;;;;16.83;14.70;;;;;;;16.94;78.36;100703.25;5031146;28;20231;-73
2021/09/25 01:28:44;;;;;;;16.17;14.47;;;;;;;16.95;78.28;100704.13;5030298;28;20213;-73
2021/09/25 01:31:14;;;;;;;15.83;14.20;;;;;;;16.94;78.44;100703.25;5030851;28;20235;-73
2021/09/25 01:33:43;;;;;;;20.50;15.53;;;;;;;16.92;78.47;100694.47;5030583;28;20216;-73
2021/09/25 01:36:11;;;;;;;15.93;14.33;;;;;;;16.94;78.65;100694.34;5030712;28;20197;-73
2021/09/25 01:38:40;;;;;;;17.23;14.03;;;;;;;16.93;78.53;100698.88;5024248;28;20205;-73
2021/09/25 01:41:07;;;;;;;16.00;14.40;;;;;;;16.92;78.64;100696.31;5030402;28;20233;-73
2021/09/25 01:43:33;;;;;;;17.77;15.87;;;;;;;16.92;78.72;100699.00;5034182;28;20212;-73
2021/09/25 01:46:00;;;;;;;18.77;16.77;;;;;;;16.91;78.64;100698.16;5041437;28;20229;-73
2021/09/25 01:48:27;;;;;;;18.70;16.70;;;;;;;16.92;78.72;100704.38;5030596;28;20223;-72
2021/09/25 01:50:54;;;;;;;18.17;16.23;;;;;;;16.91;78.79;100694.59;5029916;28;20221;-73
2021/09/25 01:53:22;;;;;;;17.17;15.40;;;;;;;16.90;78.92;100696.44;5030676;28;20584;-73
2021/09/25 01:55:50;;;;;;;18.30;15.23;;;;;;;16.91;79.07;100700.00;5043797;28;20205;-73
2021/09/25 01:58:17;;;;;;;17.43;15.63;;;;;;;16.90;79.07;100700.97;5032456;28;20198;-71
2021/09/25 02:00:44;;;;;;;16.43;14.73;;;;;;;16.90;79.17;100703.66;5023788;28;20232;-74
2021/09/25 02:03:13;;;;;;;17.87;16.07;;;;;;;16.91;79.18;100710.75;5030585;28;20205;-73
2021/09/25 02:05:39;;;;;;;17.10;15.37;;;;;;;16.91;79.16;100708.06;5028406;28;20230;-72
2021/09/25 02:08:06;;;;;;;18.53;16.47;;;;;;;16.91;79.20;100700.00;5029851;28;20201;-73
2021/09/25 02:10:33;;;;;;;17.67;15.87;;;;;;;16.90;79.24;100704.53;5030330;28;20231;-73
2021/09/25 02:13:01;;;;;;;16.77;15.23;;;;;;;16.90;79.16;100695.59;5030108;28;20206;-72
2021/09/25 02:15:27;;;;;;;17.07;15.37;;;;;;;16.89;79.22;100694.75;5032822;28;20695;-73
2021/09/25 02:17:54;;;;;;;16.50;14.87;;;;;;;16.89;79.27;100700.13;5032437;28;20210;-73
2021/09/25 02:20:21;;;;;;;19.40;15.20;;;;;;;16.89;79.33;100702.81;5029862;28;20226;-72
2021/09/25 02:22:48;;;;;;;17.27;14.80;;;;;;;16.88;79.44;100702.94;5030245;28;20202;-73
2021/09/25 02:25:14;;;;;;;17.40;15.47;;;;;;;16.90;79.40;100695.59;5029447;28;20208;-71
2021/09/25 02:27:41;;;;;;;18.57;16.80;;;;;;;16.88;79.33;100703.78;5033397;28;20238;-71
2021/09/25 02:30:13;;;;;;;17.40;15.80;;;;;;;16.89;79.43;100694.75;5035912;28;20231;-72
2021/09/25 02:32:39;;;;;;;19.67;16.60;;;;;;;16.87;79.60;100696.72;5036980;28;20208;-73
2021/09/25 02:35:07;;;;;;;16.77;14.97;;;;;;;16.87;79.50;100693.16;5036646;28;20205;-74
2021/09/25 02:37:33;;;;;;;17.90;16.30;;;;;;;16.87;79.47;100694.03;5036334;28;20209;-73
2021/09/25 02:40:00;;;;;;;17.67;15.90;;;;;;;16.88;79.63;100700.25;5035988;28;20366;-73
2021/09/25 02:42:26;;;;;;;18.63;16.80;;;;;;;16.87;79.58;100698.56;5036719;28;20215;-73
2021/09/25 02:44:53;;;;;;;17.67;15.93;;;;;;;16.87;79.56;100701.25;5036643;28;20212;-73
2021/09/25 02:47:21;;;;;;;19.30;17.30;;;;;;;16.86;79.65;100691.47;5036873;28;20709;-73
2021/09/25 02:49:48;;;;;;;18.93;16.90;;;;;;;16.85;79.65;100693.31;5035448;28;20223;-73
2021/09/25 02:52:14;;;;;;;18.93;16.77;;;;;;;16.85;79.41;100693.31;5036652;28;20211;-73
2021/09/25 02:54:41;;;;;;;18.30;16.47;;;;;;;16.86;79.68;100695.00;5036317;28;20207;-73
2021/09/25 02:57:07;;;;;;;18.13;15.73;;;;;;;16.88;79.54;100697.56;5036836;28;20205;-74
2021/09/25 02:59:34;;;;;;;18.40;16.00;;;;;;;16.88;79.57;100697.56;5035859;28;20688;-71
2021/09/25 03:02:00;;;;;;;18.00;16.10;;;;;;;16.87;79.72;100707.47;5036294;28;20212;-73
2021/09/25 03:04:28;;;;;;;18.13;16.10;;;;;;;16.87;79.64;100706.63;5034273;28;20239;-73
2021/09/25 03:06:55;;;;;;;17.43;15.63;;;;;;;16.87;79.76;100706.63;5029963;28;20232;-73
2021/09/25 03:09:22;;;;;;;17.87;16.17;;;;;;;16.88;79.82;100708.31;5036969;28;20227;-73
2021/09/25 03:11:49;;;;;;;18.60;16.73;;;;;;;16.87;79.66;100703.94;5034537;28;20267;-73
2021/09/25 03:14:15;;;;;;;17.80;16.00;;;;;;;16.88;79.81;100708.31;5037582;28;20209;-73
2021/09/25 03:16:42;;;;;;;17.83;16.03;;;;;;;16.87;79.81;100703.94;5032911;28;20204;-73
2021/09/25 03:19:08;;;;;;;16.77;15.03;;;;;;;16.86;79.78;100699.53;5031760;28;20232;-73
2021/09/25 03:21:36;;;;;;;17.17;15.50;;;;;;;16.84;79.79;100702.38;5034841;28;20283;-73
2021/09/25 03:24:03;;;;;;;17.00;15.30;;;;;;;16.85;79.86;100704.06;5034957;28;20208;-73
2021/09/25 03:26:29;;;;;;;18.13;16.47;;;;;;;16.85;79.77;100703.22;5031220;28;20222;-73
2021/09/25 03:28:56;;;;;;;17.67;15.97;;;;;;;16.85;79.86;100696.00;5028828;28;20701;-73
2021/09/25 03:31:23;;;;;;;17.37;15.23;;;;;;;16.84;79.87;100699.66;5033067;28;20623;-73
2021/09/25 03:33:49;;;;;;;17.40;15.40;;;;;;;16.84;80.00;100702.38;5029983;28;20373;-73
2021/09/25 03:36:16;;;;;;;16.83;15.13;;;;;;;16.83;79.69;100695.31;5031135;28;20204;-74
2021/09/25 03:38:44;;;;;;;15.67;14.07;;;;;;;16.83;79.97;100695.31;5031330;28;20205;-73
2021/09/25 03:41:10;;;;;;;16.20;14.50;;;;;;;16.81;79.92;100701.81;5028338;28;20230;-73
2021/09/25 03:43:37;;;;;;;17.27;15.57;;;;;;;16.81;79.80;100701.81;5029835;28;20202;-73
2021/09/25 03:46:03;;;;;;;17.17;15.37;;;;;;;16.80;79.87;100694.72;5028173;28;20255;-73
2021/09/25 03:48:30;;;;;;;17.53;15.73;;;;;;;16.79;79.85;100690.31;5026822;28;20211;-73
2021/09/25 03:50:58;;;;;;;20.37;14.93;;;;;;;16.80;79.99;100697.41;5025395;28;20231;-73
2021/09/25 03:53:25;;;;;;;16.97;15.33;;;;;;;16.79;79.83;100693.03;5041146;28;20211;-73
2021/09/25 03:55:52;;;;;;;18.17;16.37;;;;;;;16.79;79.86;100698.41;5037529;28;20206;-73
2021/09/25 03:58:19;;;;;;;16.93;15.40;;;;;;;16.77;79.91;100695.84;5033331;28;20579;-72
2021/09/25 04:00:45;;;;;;;18.17;16.40;;;;;;;16.76;80.07;100693.28;5033173;28;20311;-73
2021/09/25 04:03:13;;;;;;;16.83;15.43;;;;;;;16.76;79.89;100701.34;5033410;28;20223;-73
2021/09/25 04:05:40;;;;;;;18.73;16.03;;;;;;;16.76;79.94;100699.50;5033277;28;20217;-72
2021/09/25 04:08:07;;;;;;;17.57;15.90;;;;;;;16.77;79.80;100700.38;5032900;28;20206;-73
2021/09/25 04:10:34;;;;;;;16.93;15.40;;;;;;;16.76;79.80;100695.97;5032940;28;20238;-73
2021/09/25 04:13:02;;;;;;;18.63;16.73;;;;;;;16.75;79.91;100686.19;5032705;28;20212;-73
2021/09/25 04:15:28;;;;;;;17.27;15.57;;;;;;;16.76;79.65;100690.59;5032919;28;20204;-73
2021/09/25 04:17:55;;;;;;;17.60;15.80;;;;;;;16.74;80.02;100689.88;5033200;28;20204;-73
2021/09/25 04:20:21;;;;;;;17.90;16.10;;;;;;;16.74;79.82;100696.09;5032017;28;20236;-72
2021/09/25 04:22:48;;;;;;;17.00;15.40;;;;;;;16.74;79.73;100685.34;5032908;28;20213;-73
2021/09/25 04:25:14;;;;;;;17.27;15.60;;;;;;;16.73;80.11;100693.56;5032749;28;20213;-72
2021/09/25 04:27:41;;;;;;;17.77;15.97;;;;;;;16.73;79.83;100694.41;5033053;28;20230;-72
2021/09/25 04:30:10;;;;;;;17.10;15.30;;;;;;;16.72;79.61;100692.69;5043698;22;20221;-82
2021/09/25 04:32:37;;;;;;;18.87;16.87;;;;;;;16.73;79.78;100698.94;5093420;28;20219;-83
2021/09/25 04:35:04;;;;;;;18.27;16.37;;;;;;;16.73;79.62;100704.31;5093641;28;20231;-83
2021/09/25 04:37:30;;;;;;;17.83;16.03;;;;;;;16.72;79.78;100707.97;5093889;28;20217;-82
2021/09/25 04:39:57;;;;;;;18.23;16.50;;;;;;;16.72;79.66;100707.97;5093483;28;20203;-82
2021/09/25 04:42:23;;;;;;;18.80;16.80;;;;;;;16.70;79.54;100708.13;5093207;28;20219;-82
2021/09/25 04:44:50;;;;;;;21.50;16.77;;;;;;;16.70;79.60;100708.13;5093142;28;20213;-83
2021/09/25 04:47:18;;;;;;;20.23;17.17;;;;;;;16.68;79.71;100710.09;5091068;28;20235;-83
2021/09/25 04:49:44;;;;;;;18.53;16.67;;;;;;;16.69;79.71;100705.56;5087476;28;20571;-82
2021/09/25 04:52:11;;;;;;;19.87;17.87;;;;;;;16.67;79.69;100713.75;5079417;28;20206;-82
2021/09/25 04:54:37;;;;;;;20.10;18.00;;;;;;;16.69;79.59;100710.94;5087882;28;20206;-82
2021/09/25 04:57:05;;;;;;;22.90;18.37;;;;;;;16.69;79.53;100729.75;5083162;28;20208;-82
2021/09/25 04:59:31;;;;;;;19.77;17.30;;;;;;;16.69;79.49;100714.47;5084483;28;20726;-82
2021/09/25 05:01:58;;;;;;;19.63;17.73;;;;;;;16.68;79.67;100726.22;5092709;28;20210;-82
2021/09/25 05:04:25;;;;;;;21.40;17.27;;;;;;;16.67;79.60;100724.50;5093064;28;20240;-82
2021/09/25 05:06:52;;;;;;;19.83;17.87;;;;;;;16.66;79.54;100726.34;5092909;28;20842;-82
2021/09/25 05:09:22;;;;;;;21.10;17.87;;;;;;;16.67;79.75;100727.19;5092531;28;20211;-83
2021/09/25 05:11:48;;;;;;;22.17;18.23;;;;;;;16.67;79.56;100727.19;5093268;28;20228;-82
2021/09/25 05:14:15;;;;;;;21.70;19.40;;;;;;;16.67;79.46;100722.69;5093124;28;20207;-82
2021/09/25 05:16:41;;;;;;;23.47;20.37;;;;;;;16.68;79.63;100723.53;5092737;28;20229;-81
2021/09/25 05:19:08;;;;;;;21.70;19.50;;;;;;;16.67;79.71;100720.00;5092676;28;20195;-82
2021/09/25 05:21:36;;;;;;;23.10;20.20;;;;;;;16.66;79.66;100720.97;5093470;28;20212;-82
2021/09/25 05:24:07;;;;;;;23.30;20.17;;;;;;;16.68;79.54;100723.53;5093058;28;20207;-85
2021/09/25 05:26:35;;;;;;;21.37;19.23;;;;;;;16.69;79.54;100727.06;5088689;28;20779;-83
2021/09/25 05:29:01;;;;;;;21.53;19.23;;;;;;;16.67;79.50;100730.75;5092722;28;20205;-83
2021/09/25 05:31:28;;;;;;;21.87;19.50;;;;;;;16.69;79.49;100713.63;5092470;28;20216;-83
2021/09/25 05:33:54;;;;;;;26.13;19.43;;;;;;;16.67;79.39;100722.69;5092469;28;20210;-82
2021/09/25 05:36:21;;;;;;;22.87;18.53;;;;;;;16.69;79.23;100729.75;5098342;28;20235;-83
2021/09/25 05:38:49;;;;;;;20.93;18.60;;;;;;;16.69;79.32;100727.91;5090355;28;20202;-82
2021/09/25 05:41:15;;;;;;;19.20;17.30;;;;;;;16.70;79.18;100739.53;5094553;28;20206;-83
2021/09/25 05:43:42;;;;;;;19.80;17.63;;;;;;;16.69;79.25;100740.50;5093032;28;20201;-83
2021/09/25 05:46:09;;;;;;;18.97;17.07;;;;;;;16.67;79.09;100733.44;5091739;28;20224;-83
2021/09/25 05:48:35;;;;;;;18.27;16.47;;;;;;;16.69;79.06;100727.91;5091825;28;20212;-83
2021/09/25 05:51:02;;;;;;;19.83;17.23;;;;;;;16.69;79.16;100735.13;5092183;28;20206;-83
2021/09/25 05:53:29;;;;;;;19.10;16.97;;;;;;;16.71;79.10;100738.56;5092117;28;20213;-83
2021/09/25 05:55:57;;;;;;;18.07;16.20;;;;;;;16.72;78.95;100740.25;5092203;28;20221;-83
2021/09/25 05:58:23;;;;;;;18.70;16.67;;;;;;;16.72;78.91;100741.09;5092355;28;20415;-83
2021/09/25 06:00:50;;;;;;;18.73;16.90;;;;;;;16.71;78.79;100741.25;5092872;28;20213;-83
2021/09/25 06:03:17;;;;;;;17.50;15.70;;;;;;;16.72;78.79;100741.09;5092747;28;20202;-83
2021/09/25 06:05:43;;;;;;;17.57;15.87;;;;;;;16.72;78.75;100741.09;5092577;28;20592;-83
2021/09/25 06:08:10;;;;;;;19.00;15.80;;;;;;;16.74;78.54;100749.03;5080154;28;20677;-83
2021/09/25 06:10:37;;;;;;;17.13;15.43;;;;;;;16.75;78.62;100745.38;5092027;28;20211;-83
2021/09/25 06:13:07;;;;;;;16.43;14.73;;;;;;;16.76;78.48;100753.31;5091369;28;20649;-84
2021/09/25 06:15:35;;;;;;;14.87;13.47;;;;;;;16.76;78.28;100756.00;5092817;28;20768;-84
2021/09/25 06:18:02;;;;;;;15.77;13.70;;;;;;;16.77;78.40;100760.38;5085756;28;20197;-84
2021/09/25 06:20:29;;;;;;;15.07;13.57;;;;;;;16.79;78.28;100757.56;5080043;28;20209;-83
2021/09/25 06:22:56;;;;;;;15.03;13.53;;;;;;;16.79;77.93;100758.44;5098825;28;20599;-82
2021/09/25 06:25:22;;;;;;;15.73;13.37;;;;;;;16.81;77.86;100756.47;5080298;28;20237;-81
2021/09/25 06:27:49;;;;;;;14.10;12.73;;;;;;;16.82;77.77;100758.16;5083730;28;20600;-82
2021/09/25 06:30:17;;;;;;;13.93;12.57;;;;;;;16.82;77.71;100766.22;5082640;28;20207;-82
2021/09/25 06:32:43;;;;;;;13.17;11.93;;;;;;;16.83;77.68;100765.25;5080848;28;20567;-82
2021/09/25 06:35:11;;;;;;;13.17;11.93;;;;;;;16.86;77.37;100764.94;5084576;28;20225;-81
2021/09/25 06:37:37;;;;;;;15.33;12.80;;;;;;;16.89;77.41;100763.84;5082608;28;20208;-82
2021/09/25 06:40:05;;;;;;;13.03;11.83;;;;;;;16.90;77.33;100762.84;5080431;28;20202;-81
2021/09/25 06:42:32;;;;;;;13.17;11.97;;;;;;;16.90;77.17;100763.69;5081763;28;20201;-82
2021/09/25 06:44:58;;;;;;;11.67;10.50;;;;;;;16.92;77.06;100755.50;5084313;28;20202;-82
2021/09/25 06:47:26;;;;;;;11.83;10.63;;;;;;;16.93;76.98;100757.19;5083157;28;20234;-83
2021/09/25 06:49:53;;;;;;;11.00;9.87;;;;;;;16.95;76.65;100764.16;5083316;28;20201;-82
2021/09/25 06:52:19;;;;;;;12.17;9.87;;;;;;;16.97;76.74;100772.09;5078898;28;20220;-83
2021/09/25 06:54:46;;;;;;;10.70;9.70;;;;;;;16.96;76.53;100771.25;5079782;28;20571;-83
2021/09/25 06:57:12;;;;;;;10.53;9.53;;;;;;;16.98;76.38;100768.41;5086177;28;20199;-83
2021/09/25 06:59:39;;;;;;;10.40;9.13;;;;;;;16.98;76.40;100763.88;5083206;28;20205;-83
2021/09/25 07:02:05;;;;;;;10.73;9.77;;;;;;;17.00;76.18;100769.13;5078921;28;20280;-82
2021/09/25 07:04:33;;;;;;;10.10;9.10;;;;;;;17.00;76.03;100772.69;5088816;28;20918;-82
2021/09/25 07:07:00;;;;;;;11.17;9.97;;;;;;;17.01;75.78;100784.31;5086657;28;20224;-82
2021/09/25 07:09:26;;;;;;;9.73;8.73;;;;;;;17.01;75.88;100789.69;5081904;28;20202;-82
2021/09/25 07:11:53;;;;;;;8.63;7.80;;;;;;;17.04;75.69;100789.38;5085909;28;20198;-83
2021/09/25 07:14:20;;;;;;;10.27;8.33;;;;;;;17.04;75.64;100794.75;5086592;28;20232;-83
2021/09/25 07:16:46;;;;;;;9.33;7.47;;;;;;;17.05;75.48;100801.84;5083496;28;20725;-83
2021/09/25 07:19:13;;;;;;;10.50;7.97;;;;;;;17.07;75.37;100794.50;5081991;28;20783;-84
2021/09/25 07:21:41;;;;;;;8.33;7.43;;;;;;;17.09;75.18;100803.28;5085103;28;20714;-83
2021/09/25 07:24:08;;;;;;;8.10;7.30;;;;;;;17.10;75.27;100802.31;5087892;28;20724;-84
2021/09/25 07:26:36;;;;;;;7.90;7.07;;;;;;;17.14;75.20;100805.59;5094225;28;20229;-81
2021/09/25 07:29:04;;;;;;;7.43;6.43;;;;;;;17.15;75.10;100810.84;5088727;28;20654;-83
2021/09/25 07:31:30;;;;;;;10.50;6.93;;;;;;;17.18;75.08;100807.88;5090455;28;20592;-84
2021/09/25 07:33:57;;;;;;;8.63;6.67;;;;;;;17.19;74.76;100806.91;5091508;28;20205;-83
2021/09/25 07:36:24;;;;;;;7.17;6.13;;;;;;;17.22;74.84;100811.13;5093212;28;20250;-81
2021/09/25 07:38:52;;;;;;;8.53;6.33;;;;;;;17.23;74.56;100808.31;5091410;28;20656;-82
2021/09/25 07:41:18;;;;;;;7.23;6.47;;;;;;;17.23;74.34;100808.31;5087497;28;20211;-84
2021/09/25 07:43:45;;;;;;;7.87;6.67;;;;;;;17.24;73.92;100812.69;5086972;28;20201;-83
2021/09/25 07:46:12;;;;;;;10.00;6.80;;;;;;;17.26;74.12;100816.13;5091524;28;20225;-82
2021/09/25 07:48:38;;;;;;;7.43;5.67;;;;;;;17.30;73.97;100817.56;5097142;28;20223;-81
2021/09/25 07:51:05;;;;;;;7.20;5.70;;;;;;;17.33;74.02;100816.44;5086387;28;20209;-85
2021/09/25 07:53:34;;;;;;;7.13;5.33;;;;;;;17.35;74.01;100819.84;5086298;28;20706;-83
2021/09/25 07:56:03;;;;;;;7.40;5.70;;;;;;;17.36;73.69;100816.16;5084656;28;20223;-83
2021/09/25 07:58:30;;;;;;;5.97;5.20;;;;;;;17.39;73.39;100821.25;5092393;28;20206;-82
2021/09/25 08:00:56;;;;;;;6.93;5.00;;;;;;;17.43;73.49;100821.84;5088258;28;20561;-82
2021/09/25 08:03:23;;;;;;;4.93;4.43;;;;;;;17.46;73.30;100832.34;5088335;28;20205;-82
2021/09/25 08:05:49;;;;;;;6.70;4.63;;;;;;;17.50;73.07;100834.63;5103194;28;20229;-83
2021/09/25 08:08:16;;;;;;;6.37;5.10;;;;;;;17.56;72.92;100838.59;5111631;28;20220;-83
2021/09/25 08:10:42;;;;;;;5.10;4.57;;;;;;;17.61;72.83;100836.34;5097378;28;20288;-81
2021/09/25 08:13:11;;;;;;;5.97;4.53;;;;;;;17.64;72.49;100836.97;5090677;28;20201;-82
2021/09/25 08:15:38;;;;;;;5.87;4.47;;;;;;;17.69;72.51;100834.72;5091403;28;20226;-82
2021/09/25 08:18:05;;;;;;;8.10;5.60;;;;;;;17.73;72.28;100840.69;5090658;28;20220;-82
2021/09/25 08:20:31;;;;;;;6.97;4.87;;;;;;;17.74;71.82;100842.34;5095432;28;20651;-84
2021/09/25 08:22:58;;;;;;;6.23;4.67;;;;;;;17.79;71.86;100841.94;5093053;28;20212;-83
2021/09/25 08:25:25;;;;;;;6.27;4.73;;;;;;;17.82;71.81;100845.22;5094935;28;20225;-83
2021/09/25 08:27:52;;;;;;;7.40;4.50;;;;;;;17.85;71.41;100850.34;5093409;28;20230;-83
2021/09/25 08:30:24;;;;;;;6.87;5.07;;;;;;;17.85;71.29;100855.72;5084941;28;20217;-82
2021/09/25 08:32:51;;;;;;;5.93;4.63;;;;;;;17.90;71.26;100855.31;5086508;28;20557;-83
2021/09/25 08:35:17;;;;;;;4.83;4.10;;;;;;;17.96;71.05;100852.03;5090850;28;21437;-82
2021/09/25 08:37:44;;;;;;;7.40;4.20;;;;;;;17.97;70.87;100862.69;5087567;28;20202;-82
2021/09/25 08:40:13;;;;;;;6.17;4.23;;;;;;;17.99;70.73;100863.41;5083963;28;20209;-81
2021/09/25 08:42:41;;;;;;;5.97;4.37;;;;;;;18.04;70.75;100871.94;5088759;28;20202;-82
2021/09/25 08:45:09;;;;;;;5.40;4.30;;;;;;;18.07;70.49;100869.94;5091370;28;20227;-82
2021/09/25 08:47:37;;;;;;;5.10;4.23;;;;;;;18.11;70.34;100879.44;5082212;28;20226;-82
2021/09/25 08:50:05;;;;;;;7.20;4.50;;;;;;;18.16;70.56;100869.09;5084699;28;20201;-84
2021/09/25 08:52:33;;;;;;;4.27;3.87;;;;;;;18.23;70.68;100871.09;5095315;28;20207;-83
2021/09/25 08:55:00;;;;;;;5.03;4.23;;;;;;;18.28;70.04;100868.81;5086242;28;20677;-82
2021/09/25 08:57:26;;;;;;;5.40;4.23;;;;;;;18.31;69.81;100873.06;5089972;28;20654;-82
2021/09/25 08:59:53;;;;;;;4.80;3.80;;;;;;;18.33;69.82;100877.34;5094584;28;20197;-82
2021/09/25 09:02:21;;;;;;;5.97;4.03;;;;;;;18.45;69.96;100869.13;5086628;28;20593;-84
2021/09/25 09:04:51;;;;;;;5.33;3.87;;;;;;;18.52;69.41;100871.09;5091539;28;20191;-84
2021/09/25 09:07:19;;;;;;;5.57;3.83;;;;;;;18.59;69.17;100876.81;5083818;28;20208;-84
2021/09/25 09:09:47;;;;;;;4.60;4.00;;;;;;;18.65;68.81;100870.81;5088904;28;20202;-85
2021/09/25 09:12:15;;;;;;;4.27;3.60;;;;;;;18.74;68.47;100869.97;5091811;28;20659;-84
2021/09/25 09:14:44;;;;;;;5.57;4.07;;;;;;;18.85;68.47;100871.63;5103894;28;20230;-84
2021/09/25 09:17:14;;;;;;;5.00;3.40;;;;;;;18.95;67.90;100867.09;5112639;28;20608;-84
2021/09/25 09:19:41;;;;;;;4.90;3.90;;;;;;;19.06;67.45;100869.59;5115680;28;20194;-84
2021/09/25 09:22:16;;;;;;;5.87;3.90;;;;;;;19.19;67.33;100877.38;5105067;28;20666;-83
2021/09/25 09:24:44;;;;;;;4.00;3.30;;;;;;;19.31;66.76;100878.91;5095932;28;20193;-83
2021/09/25 09:27:13;;;;;;;5.47;4.57;;;;;;;19.44;66.30;100874.03;5103241;28;20205;-83
2021/09/25 09:29:40;;;;;;;6.87;4.57;;;;;;;19.55;65.42;100875.69;5096295;28;20237;-83
2021/09/25 09:32:09;;;;;;;4.70;3.53;;;;;;;19.63;65.07;100870.41;5090688;28;20220;-84
2021/09/25 09:34:40;;;;;;;4.43;3.37;;;;;;;19.74;65.19;100878.31;5090905;28;20209;-83
2021/09/25 09:37:16;;;;;;;6.03;4.40;;;;;;;19.82;64.01;100878.41;5100020;28;20206;-84
2021/09/25 09:39:43;;;;;;;5.70;3.77;;;;;;;19.94;64.16;100876.34;5075036;28;20198;-84
2021/09/25 09:42:10;;;;;;;4.93;3.37;;;;;;;20.07;63.79;100872.25;5094109;28;20202;-83
2021/09/25 09:44:38;;;;;;;3.83;3.50;;;;;;;20.17;63.52;100871.34;5094536;28;20294;-83
2021/09/25 09:47:07;;;;;;;4.53;3.30;;;;;;;20.25;63.23;100874.97;5095053;28;20219;-84
2021/09/25 09:49:35;;;;;;;4.10;3.67;;;;;;;20.31;62.44;100879.78;5095443;28;20226;-85
2021/09/25 09:52:05;;;;;;;4.55;3.40;;;;;;;20.33;62.39;100872.38;5098445;28;20212;-85
2021/09/25 09:54:35;;;;;;;4.63;3.50;;;;;;;20.38;62.12;100880.06;5089111;28;20208;-84
2021/09/25 09:57:04;;;;;;;4.43;3.13;;;;;;;20.44;62.20;100882.13;5092170;28;20230;-84
2021/09/25 09:59:31;;;;;;;4.80;2.93;;;;;;;20.49;61.72;100889.78;5089512;28;20202;-84
2021/09/25 10:01:58;;;;;;;3.47;3.17;;;;;;;20.52;61.33;100890.34;5088307;28;20197;-83
2021/09/25 10:04:24;;;;;;;3.97;3.03;;;;;;;20.53;60.97;100885.78;5097752;28;20674;-84
2021/09/25 10:06:52;;;;;;;3.80;3.20;;;;;;;20.55;60.84;100889.19;5087967;28;20245;-84
2021/09/25 10:09:20;;;;;;;4.10;3.22;;;;;;;20.58;60.87;100878.91;5098428;28;20781;-83
2021/09/25 10:11:51;;;;;;;4.43;3.13;;;;;;;20.61;60.46;100883.97;5097441;28;20200;-84
2021/09/25 10:14:19;;;;;;;3.67;2.77;;;;;;;20.61;60.46;100886.69;5093790;28;20578;-84
2021/09/25 10:16:47;;;;;;;3.70;2.90;;;;;;;20.61;60.23;100894.78;5090897;28;20227;-84
2021/09/25 10:19:16;;;;;;;5.40;3.05;;;;;;;20.62;60.30;100888.38;5094668;28;20199;-84
2021/09/25 10:21:43;;;;;;;5.40;3.60;;;;;;;20.64;60.04;100896.34;5103188;28;20199;-85
2021/09/25 10:24:14;;;;;;;3.00;2.70;;;;;;;20.68;60.26;100890.47;5098196;28;20199;-84
2021/09/25 10:26:44;;;;;;;6.75;3.83;;;;;;;20.70;60.23;100896.56;5095521;28;20288;-85
2021/09/25 10:29:19;;;;;;;4.50;3.30;;;;;;;20.72;60.42;100893.72;5095227;28;20637;-84
2021/09/25 10:31:45;;;;;;;4.80;3.53;;;;;;;20.76;60.31;100895.97;5114095;28;20292;-84
2021/09/25 10:34:15;;;;;;;3.45;2.92;;;;;;;20.82;60.13;100899.88;5114196;28;20566;-85
2021/09/25 10:36:47;;;;;;;5.45;3.13;;;;;;;20.87;60.20;100892.16;5113519;28;20226;-84
2021/09/25 10:39:27;;;;;;;4.82;3.65;;;;;;;20.94;60.15;100897.78;5095777;28;20685;-84
2021/09/25 10:42:12;;;;;;;3.17;2.80;;;;;;;20.98;59.77;100899.16;5096883;28;20203;-84
2021/09/25 10:44:47;;;;;;;7.03;3.35;;;;;;;21.01;59.53;100898.84;5084853;28;20555;-84
2021/09/25 10:47:16;;;;;;;3.55;3.28;;;;;;;21.02;59.47;100895.97;5110287;28;20187;-84
2021/09/25 10:49:48;;;;;;;3.95;2.63;;;;;;;21.05;59.43;100903.78;5115911;28;20226;-84
2021/09/25 10:52:20;;;;;;;2.97;2.72;;;;;;;21.10;59.26;100896.03;5116514;28;20656;-84
2021/09/25 10:55:31;;;;;;;4.00;3.33;;;;;;;21.15;59.46;100904.50;5109376;28;20210;-84
2021/09/25 10:58:28;;;;;;;6.03;3.38;;;;;;;21.23;59.23;100911.03;5068288;28;20200;-85
2021/09/25 11:01:01;;;;;;;3.40;3.10;;;;;;;21.27;58.96;100915.13;5096602;28;20649;-83
2021/09/25 11:04:04;;;;;;;3.47;2.60;;;;;;;21.32;58.88;100907.34;5096716;28;20195;-84
2021/09/25 11:06:37;;;;;;;2.90;2.63;;;;;;;21.40;59.32;100905.56;5096701;28;20262;-84
2021/09/25 11:09:07;;;;;;;3.00;2.75;;;;;;;21.50;59.22;100904.59;5096657;28;20213;-84
2021/09/25 11:11:38;;;;;;;3.95;3.50;;;;;;;21.54;58.37;100905.97;5087484;28;20212;-84
2021/09/25 11:14:13;;;;;;;4.70;3.08;;;;;;;21.53;58.13;100909.69;5100301;28;20203;-84
2021/09/25 11:16:50;;;;;;;4.55;3.30;;;;;;;21.52;58.27;100910.69;5095852;28;20711;-84